x

Buoy F01 - West Penobscot Bay (44033) Wave Buoy

4:04am - Wed 4th May 2016 All times are EDT. -4 hours from GMT.

  • Sig Wave height 1.6ft
  • Peak Period 8s
  • Wind
    4mph
  • Sea Temp 45°f
  • 空気 Temp 46°f
  • Sea Pressure 1010.7mb
  • Buoy F01 - West Penobscot Bay
  • Buoy F01 - West Penobscot Bay

More Historic Weather Station data

Upgrade to MSW Pro to gain access to the past 30 days of data for over 8000 Wavebouys and Weather Stations around the globe.

Join Pro

Comparision Forecast

View Surf forecast
   
Wed 05/04 4:04am 1.6ft 8s 4
mph
1010.7mb 45f 46f
3:04am 1.6ft 8s 2
mph
1010.7mb 45f 45f
2:04am 1.3ft 8s 4
mph
1010.7mb 45f 45f
1:04am 1.3ft 8s 7
mph
1010.6mb 45f 45f
12:04am 1.3ft 8s 2 4 mph 1010.8mb 45f 46f
Tue 05/03 11:04pm 1.6ft 8s 2
mph
1010.7mb 44f 45f
10:04pm 1.3ft 11s 2
mph
1010.9mb 45f 45f
9:04pm 1.6ft 8s 4 9 mph 1010.5mb 45f 46f
8:04pm 1.6ft 8s 4
mph
1010.2mb 45f 46f
7:04pm 1.6ft 8s 4 7 mph 1009.8mb 44f 46f
6:04pm 1.6ft 8s 4
mph
1010mb 45f 46f
5:04pm 1.3ft 8s 2
mph
1009.9mb 45f 48f
4:04pm 1.6ft 8s 4
mph
1009.7mb 45f 47f
3:04pm 1.6ft 8s 4 7 mph 1010.4mb 45f 47f
2:04pm 1.6ft 8s 4 7 mph 1010.9mb 45f 48f
1:04pm 1.6ft 8s 4 7 mph 1011mb 45f 47f
12:04pm 1.6ft 8s  -  mph - 44f -
11:04am 1.6ft 6s 4 7 mph 1011.4mb 44f 46f
10:04am 1.6ft 6s 7 9 mph 1011.5mb 44f 44f
9:04am 1.6ft 8s 7 9 mph 1011.8mb 44f 44f
8:04am 1.6ft 8s 7 9 mph 1011.7mb 43f 43f
7:04am 2ft 8s 7 9 mph 1011.5mb 44f 43f
6:04am 2ft 6s 9
mph
1011.3mb 44f 43f
5:04am 2.5ft 8s 13 18 mph 1010mb 44f 43f
4:04am 2.5ft 8s 11 13 mph 1010.8mb 44f 43f
3:04am 3ft 8s 13 16 mph 1010.4mb 44f 43f
2:04am 3.5ft 6s 16 18 mph 1010.8mb 44f 43f
1:04am 3.5ft 8s 13 18 mph 1010.6mb 44f 43f
12:04am 4ft 6s 13 18 mph 1010.9mb 43f 43f
Mon 05/02 11:04pm 3.5ft 6s 16 20 mph 1010.5mb 43f 43f
10:04pm 4.5ft 6s 18 22 mph 1010.2mb 43f 43f
9:04pm 3.5ft 6s 16 22 mph 1010.3mb 43f 44f
8:04pm 3.5ft 6s 16 18 mph 1011.3mb 44f 44f
7:04pm 3.5ft 6s 16 20 mph 1011.9mb 44f 44f
6:04pm 4ft 6s 13 20 mph 1011.3mb 43f 45f
5:04pm 3.5ft 8s 16 18 mph 1011mb 44f 44f
4:04pm 2.5ft 5s 16 20 mph 1012.8mb 43f 43f
3:04pm 3ft 8s 18 20 mph 1014.3mb 44f 43f
2:04pm 3ft 8s 11 13 mph 1016.2mb 44f 43f
1:04pm 2.5ft 8s 16 20 mph 1016.2mb 44f 45f
12:04pm 2.5ft 8s 13 18 mph 1017mb 44f 46f
11:04am 2ft 8s 16 18 mph 1017.6mb 44f 46f
10:04am 1.6ft 8s 9 13 mph 1018.7mb 43f 45f
9:04am 2ft 8s 9 13 mph 1018.9mb 43f 45f
8:04am 2ft 6s 9 11 mph 1019mb 43f 44f
7:04am 1.6ft 11s 7 9 mph 1019.3mb 43f 43f
6:04am 1.6ft 8s 9
mph
1019.1mb 44f 43f
5:04am 2ft 11s 9 11 mph 1019.5mb 44f 44f
4:04am 2.5ft 8s 4
mph
1020.1mb 44f 44f
3:04am 2ft 11s 11 16 mph 1019.9mb 44f 44f
2:04am 2.5ft 11s 4 7 mph 1020.5mb 44f 44f
1:04am 2.5ft 8s 7 9 mph 1020.4mb 44f 44f
12:04am 2.5ft 11s 9 11 mph 1020.8mb 44f 44f
Sun 05/01 11:04pm 2ft 11s 7 9 mph 1020.9mb 44f 44f
10:04pm 2ft 8s 7
mph
1021.9mb 44f 44f
9:04pm 2.5ft 11s 7
mph
1021.8mb 44f 44f
8:04pm 2ft 11s 4
mph
1022.2mb 44f 44f
7:04pm 2ft 8s 4
mph
1022.5mb 44f 44f
6:04pm 2.5ft 11s 2
mph
1022.7mb 45f 45f
5:04pm 3ft 11s 4 7 mph 1023mb 45f 45f
4:04pm 2.5ft 8s 7 9 mph 1023.5mb 45f 45f
3:04pm 2.5ft 8s 9 11 mph 1023.8mb 44f 45f
2:04pm 2.5ft 11s 9
mph
1024mb 45f 45f
1:04pm 1.6ft 8s 9
mph
1024.4mb 45f 45f
12:04pm 1.6ft 8s 11 13 mph 1024mb 44f 45f
11:04am 1.3ft 8s 9 11 mph 1023.8mb 44f 45f
10:04am 1.3ft 8s 7 9 mph 1024mb 44f 45f
9:04am 1ft 8s 7 9 mph 1023.6mb 44f 44f
8:04am 1ft 8s 7 9 mph 1023.7mb 44f 44f
7:04am 1ft 8s 7 9 mph 1023.4mb 44f 44f
6:04am 1ft 6s 4 7 mph 1023mb 44f 43f
5:04am 1ft 6s 2
mph
1022.7mb 44f 43f
4:04am 1ft 8s 2
mph
1022.9mb 44f 43f
3:04am 1ft 8s 2
mph
1023mb 44f 43f
2:04am 1ft 8s 2
mph
1023mb 44f 42f
1:04am 1ft 8s 2
mph
1023.5mb 44f 43f
12:04am 1ft 6s 4
mph
1023.7mb 44f 43f
Sat 04/30 11:04pm 0.7ft  -  9
mph
1023.3mb 44f 44f
10:04pm 1ft 8s 11
mph
1023.4mb 44f 44f
9:04pm 1ft 6s 7 9 mph 1023.1mb 44f 45f
8:04pm 1ft 3s 9 11 mph 1022.4mb 44f 45f
6:04pm 1ft 6s 13
mph
1021.7mb 45f 46f
5:04pm 1ft 8s 11 13 mph 1021.4mb 45f 46f
4:04pm 1ft 8s 11
mph
1021.4mb 45f 46f
3:04pm 1ft 8s 11 13 mph 1021.4mb 45f 46f
2:04pm 1.3ft 8s 9
mph
1021.9mb 45f 45f
1:04pm 1ft 8s 11
mph
1022.2mb 45f 44f
12:04pm 1ft 8s 9 11 mph 1023mb 45f 44f
11:04am 1.3ft 5s 4 7 mph 1023.9mb 45f 44f
10:04am 1ft 5s 2
mph
1023.2mb 44f 44f